Time;durP1;ratioP1;P1;durP2;ratioP2;P2;SDS_P1;SDS_P2;PMS_P1;PMS_P2;Temp;Humidity;BMP_temperature;BMP_pressure;BME280_temperature;BME280_humidity;BME280_pressure;Samples;Min_cycle;Max_cycle;Signal;HPM_P1;HPM_P2
2024/01/22 05:03:48;;;;;;;1.03;0.93;;;5.80;97.30;;;;;;4952277;28;20572;-94
2024/01/22 05:06:47;;;;;;;1.80;1.77;;;5.90;97.30;;;;;;4957036;28;20490;-94
2024/01/22 05:09:18;;;;;;;1.10;1.00;;;5.90;97.30;;;;;;4955992;28;20494;-94
2024/01/22 05:11:44;;;;;;;1.10;1.00;;;6.00;97.30;;;;;;4992684;23;20503;-67
2024/01/22 05:14:09;;;;;;;1.00;0.90;;;6.10;97.30;;;;;;5007506;28;20420;-71
2024/01/22 05:16:37;;;;;;;2.20;1.53;;;6.10;97.30;;;;;;5000603;28;20192;-73
2024/01/22 05:19:03;;;;;;;1.17;1.07;;;6.20;97.30;;;;;;4990261;28;20200;-70
2024/01/22 05:21:28;;;;;;;1.37;1.27;;;6.30;97.30;;;;;;4996035;28;20457;-66
2024/01/22 05:23:54;;;;;;;0.97;0.87;;;6.40;97.30;;;;;;4988870;28;20186;-68
2024/01/22 05:26:20;;;;;;;1.30;1.20;;;6.50;97.30;;;;;;4987189;28;20209;-67
2024/01/22 05:28:46;;;;;;;1.27;0.93;;;6.50;97.30;;;;;;4987343;28;20178;-67
2024/01/22 05:31:12;;;;;;;0.90;0.80;;;6.50;97.30;;;;;;4987255;28;20444;-69
2024/01/22 05:33:37;;;;;;;0.90;0.80;;;6.60;97.30;;;;;;4986835;28;20433;-70
2024/01/22 05:36:03;;;;;;;0.90;0.80;;;6.60;97.30;;;;;;4987206;28;20182;-68
2024/01/22 05:38:28;;;;;;;0.90;0.80;;;6.60;97.30;;;;;;4986968;28;20213;-67
2024/01/22 05:40:54;;;;;;;0.87;0.77;;;6.60;97.30;;;;;;4988630;28;20764;-66
2024/01/22 05:43:20;;;;;;;0.90;0.80;;;6.60;97.30;;;;;;4989353;28;20182;-65
2024/01/22 05:45:45;;;;;;;1.10;1.00;;;6.60;97.30;;;;;;4987275;28;20519;-68
2024/01/22 05:48:11;;;;;;;0.90;0.80;;;6.60;97.30;;;;;;4988967;28;20244;-72
2024/01/22 05:50:36;;;;;;;2.50;2.30;;;6.70;97.30;;;;;;4987244;28;20576;-66
2024/01/22 05:53:02;;;;;;;0.90;0.80;;;6.70;97.30;;;;;;4987584;28;20197;-70
2024/01/22 05:55:28;;;;;;;0.87;0.77;;;6.60;97.30;;;;;;4987434;28;20673;-65
2024/01/22 05:57:54;;;;;;;1.00;0.90;;;6.50;97.30;;;;;;4988486;28;20715;-69
2024/01/22 06:00:20;;;;;;;1.47;1.10;;;6.50;97.30;;;;;;4987180;28;20228;-67
2024/01/22 06:02:46;;;;;;;1.47;1.37;;;6.50;97.30;;;;;;4985647;28;20964;-67
2024/01/22 06:05:12;;;;;;;0.97;0.87;;;6.50;97.30;;;;;;4986308;28;20514;-66
2024/01/22 06:07:38;;;;;;;1.00;1.00;;;6.50;97.30;;;;;;4991617;28;20177;-66
2024/01/22 06:10:05;;;;;;;1.00;0.90;;;6.50;97.30;;;;;;4994092;28;20429;-69
2024/01/22 06:12:32;;;;;;;1.20;1.10;;;6.50;97.30;;;;;;4994439;28;20451;-67
2024/01/22 06:14:58;;;;;;;1.67;1.13;;;6.50;97.30;;;;;;4992061;28;20452;-68
2024/01/22 06:17:24;;;;;;;0.90;0.80;;;6.50;97.30;;;;;;5015006;28;20429;-66
2024/01/22 06:19:50;;;;;;;1.20;1.10;;;6.50;97.30;;;;;;4997644;28;20424;-66
2024/01/22 06:22:17;;;;;;;1.40;1.30;;;6.60;97.30;;;;;;4989874;28;20202;-67
2024/01/22 06:24:44;;;;;;;1.57;1.00;;;6.70;97.30;;;;;;4997541;28;20213;-71
2024/01/22 06:27:09;;;;;;;1.00;0.90;;;6.60;97.30;;;;;;4990992;28;20439;-69
2024/01/22 06:29:35;;;;;;;0.97;0.90;;;6.70;97.30;;;;;;4997265;28;20425;-69
2024/01/22 06:32:01;;;;;;;1.27;1.17;;;6.70;97.30;;;;;;4991678;28;20574;-71
2024/01/22 06:34:27;;;;;;;1.10;1.00;;;6.70;97.30;;;;;;4995582;28;20190;-71
2024/01/22 06:36:52;;;;;;;1.20;1.10;;;6.70;97.30;;;;;;4990452;28;21011;-72
2024/01/22 06:39:18;;;;;;;0.90;0.80;;;6.70;97.30;;;;;;4995841;28;20653;-68
2024/01/22 06:41:43;;;;;;;0.90;0.80;;;6.70;97.30;;;;;;4989663;28;20685;-70
2024/01/22 06:44:09;;;;;;;0.90;0.80;;;6.70;97.30;;;;;;4990020;28;20677;-67
2024/01/22 06:46:34;;;;;;;0.90;0.80;;;6.70;97.30;;;;;;4990318;28;20699;-65
2024/01/22 06:49:00;;;;;;;5.90;2.00;;;6.80;97.30;;;;;;4995960;28;20225;-68
2024/01/22 06:51:25;;;;;;;0.80;0.80;;;6.80;97.30;;;;;;4974004;28;20210;-71
2024/01/22 06:53:51;;;;;;;0.90;0.80;;;6.90;97.30;;;;;;4995980;28;20174;-73
2024/01/22 06:56:16;;;;;;;1.00;0.90;;;7.00;97.30;;;;;;4991338;28;20269;-71
2024/01/22 06:58:42;;;;;;;1.10;0.90;;;7.00;97.30;;;;;;4996923;28;20182;-70
2024/01/22 07:01:08;;;;;;;0.90;0.80;;;7.00;97.30;;;;;;4990087;28;20677;-69
2024/01/22 07:03:35;;;;;;;1.63;1.53;;;7.00;97.30;;;;;;4995216;28;20186;-68
2024/01/22 07:06:01;;;;;;;0.90;0.80;;;7.10;97.30;;;;;;4991545;28;20221;-69
2024/01/22 07:08:26;;;;;;;1.10;1.00;;;7.10;97.30;;;;;;4973817;28;20956;-69
2024/01/22 07:10:52;;;;;;;0.90;0.80;;;7.10;97.30;;;;;;4989884;28;20565;-67
2024/01/22 07:13:17;;;;;;;1.00;0.90;;;7.10;97.30;;;;;;4991336;28;20537;-68
2024/01/22 07:15:43;;;;;;;1.10;1.00;;;7.10;97.30;;;;;;4991253;28;20181;-67
2024/01/22 07:18:08;;;;;;;1.10;1.00;;;7.10;97.30;;;;;;4995372;28;20709;-68
2024/01/22 07:20:34;;;;;;;2.50;1.00;;;7.20;97.30;;;;;;4990968;28;20715;-69
2024/01/22 07:23:00;;;;;;;1.00;0.90;;;7.20;97.30;;;;;;4992357;28;20196;-69
2024/01/22 07:25:26;;;;;;;1.53;0.90;;;7.20;97.30;;;;;;4990612;28;20214;-67
2024/01/22 07:27:51;;;;;;;0.90;0.90;;;7.30;97.30;;;;;;4989481;28;20527;-72
2024/01/22 07:30:17;;;;;;;1.03;0.93;;;7.30;97.30;;;;;;4990049;28;20982;-73
2024/01/22 07:32:44;;;;;;;1.50;1.40;;;7.40;97.30;;;;;;4987070;28;20182;-70
2024/01/22 07:35:11;;;;;;;1.00;0.90;;;7.50;97.30;;;;;;4992079;28;20638;-70
2024/01/22 07:37:37;;;;;;;1.00;0.90;;;7.60;97.30;;;;;;4987928;28;20432;-74
2024/01/22 07:40:04;;;;;;;0.90;0.80;;;7.60;97.30;;;;;;4992763;28;20433;-69
2024/01/22 07:42:34;;;;;;;1.10;1.00;;;7.70;97.30;;;;;;4988316;28;20795;-72
2024/01/22 07:44:59;;;;;;;1.30;1.20;;;7.70;97.30;;;;;;4989079;28;20509;-71
2024/01/22 07:47:25;;;;;;;0.90;0.80;;;7.70;97.30;;;;;;4988946;28;20429;-73
2024/01/22 07:49:51;;;;;;;0.90;0.80;;;7.80;97.30;;;;;;4988822;28;20506;-72
2024/01/22 07:52:16;;;;;;;0.90;0.80;;;7.80;97.30;;;;;;4988507;28;20284;-71
2024/01/22 07:54:42;;;;;;;1.47;1.37;;;7.80;97.30;;;;;;4988602;28;20628;-69
2024/01/22 07:57:10;;;;;;;1.17;1.07;;;7.80;97.30;;;;;;4990295;28;20205;-72
2024/01/22 07:59:39;;;;;;;1.00;0.90;;;7.80;97.30;;;;;;4991553;28;20177;-68
2024/01/22 08:02:06;;;;;;;0.93;0.93;;;7.90;97.30;;;;;;4988693;28;20457;-73
2024/01/22 08:04:31;;;;;;;0.90;0.80;;;7.90;97.30;;;;;;4974944;28;20445;-72
2024/01/22 08:07:00;;;;;;;1.10;1.07;;;7.90;97.30;;;;;;4988295;28;20807;-72
2024/01/22 08:09:28;;;;;;;0.90;0.80;;;7.90;97.30;;;;;;4988575;28;20177;-70
2024/01/22 08:11:55;;;;;;;1.53;0.80;;;7.90;97.30;;;;;;4988816;28;20507;-73
2024/01/22 08:14:22;;;;;;;0.80;0.70;;;8.00;97.30;;;;;;4992226;28;20479;-72
2024/01/22 08:16:49;;;;;;;0.90;0.80;;;8.00;97.30;;;;;;4988734;28;20539;-71
2024/01/22 08:19:15;;;;;;;1.00;0.90;;;7.90;97.30;;;;;;4992358;28;20452;-68
2024/01/22 08:21:40;;;;;;;0.90;0.80;;;7.90;97.30;;;;;;4989544;28;20437;-74
2024/01/22 08:24:06;;;;;;;1.27;1.17;;;7.90;97.30;;;;;;4990148;28;20670;-71
2024/01/22 08:26:31;;;;;;;1.00;0.90;;;7.90;97.30;;;;;;4988269;28;20312;-70
2024/01/22 08:28:57;;;;;;;1.03;0.93;;;7.90;97.30;;;;;;4989759;28;20178;-65
2024/01/22 08:31:23;;;;;;;1.00;0.90;;;8.00;97.30;;;;;;4995986;28;20227;-72
2024/01/22 08:33:49;;;;;;;1.00;0.90;;;8.00;97.30;;;;;;4988423;28;20557;-70
2024/01/22 08:36:15;;;;;;;1.20;1.10;;;8.00;97.30;;;;;;4988106;28;20433;-70
2024/01/22 08:38:41;;;;;;;1.40;1.30;;;8.00;97.30;;;;;;4990618;28;20436;-72
2024/01/22 08:41:08;;;;;;;1.00;0.90;;;8.00;97.30;;;;;;4988407;28;20456;-73
2024/01/22 08:43:36;;;;;;;0.90;0.80;;;8.00;97.30;;;;;;4990237;28;20610;-73
2024/01/22 08:46:02;;;;;;;1.00;0.90;;;8.10;97.30;;;;;;4989537;28;20998;-73
2024/01/22 08:48:28;;;;;;;1.53;1.00;;;8.20;97.30;;;;;;4986212;28;20425;-70
2024/01/22 08:50:53;;;;;;;2.07;1.40;;;8.20;97.30;;;;;;4981002;28;20212;-68
2024/01/22 08:53:19;;;;;;;1.00;0.90;;;8.20;97.30;;;;;;4989314;28;20724;-69
2024/01/22 08:55:45;;;;;;;1.10;1.00;;;8.30;97.30;;;;;;4987421;28;20208;-75
2024/01/22 08:58:10;;;;;;;1.00;0.90;;;8.30;97.30;;;;;;4987777;28;20182;-71
2024/01/22 09:00:36;;;;;;;1.20;1.10;;;8.30;97.30;;;;;;4987695;28;20713;-70
2024/01/22 09:03:02;;;;;;;1.57;1.47;;;8.40;97.30;;;;;;4989004;28;20285;-72
2024/01/22 09:05:28;;;;;;;1.40;1.30;;;8.40;97.30;;;;;;4979479;28;20519;-75
2024/01/22 09:07:54;;;;;;;1.77;1.20;;;8.50;97.30;;;;;;4987861;28;20187;-69
2024/01/22 09:10:19;;;;;;;1.23;1.00;;;8.50;97.30;;;;;;4987991;28;20425;-76
2024/01/22 09:12:48;;;;;;;1.20;1.10;;;8.50;97.30;;;;;;4981063;28;20217;-75
2024/01/22 09:15:17;;;;;;;30.87;1.87;;;8.50;97.30;;;;;;4995209;28;20182;-77
2024/01/22 09:17:43;;;;;;;1.00;0.90;;;8.60;97.30;;;;;;4987417;28;20432;-72
2024/01/22 09:20:10;;;;;;;1.23;1.10;;;8.60;97.30;;;;;;4996363;28;20428;-69
2024/01/22 09:22:35;;;;;;;1.20;1.10;;;8.50;97.30;;;;;;4987088;28;20895;-70
2024/01/22 09:25:01;;;;;;;1.10;1.00;;;8.50;97.30;;;;;;4994585;28;20544;-71
2024/01/22 09:27:27;;;;;;;1.10;1.00;;;8.50;97.30;;;;;;4987496;28;20180;-72
2024/01/22 09:29:53;;;;;;;0.90;0.80;;;8.60;97.30;;;;;;4988956;28;20209;-69
2024/01/22 09:32:20;;;;;;;1.20;1.10;;;8.60;97.30;;;;;;4988938;28;20479;-75
2024/01/22 09:34:45;;;;;;;0.90;0.80;;;8.60;97.30;;;;;;4988813;28;20194;-74
2024/01/22 09:37:11;;;;;;;0.90;0.80;;;8.60;97.30;;;;;;4987798;28;20460;-72
2024/01/22 09:39:36;;;;;;;1.23;1.13;;;8.60;97.30;;;;;;4994197;28;20196;-73
2024/01/22 09:42:02;;;;;;;0.90;0.80;;;8.60;97.30;;;;;;4988581;28;20637;-73
2024/01/22 09:44:29;;;;;;;1.03;0.93;;;8.60;97.30;;;;;;4997277;28;20192;-73
2024/01/22 09:46:55;;;;;;;1.30;1.20;;;8.60;97.30;;;;;;4992532;28;20182;-74
2024/01/22 09:49:23;;;;;;;1.00;0.90;;;8.60;97.30;;;;;;4998846;28;20494;-73
2024/01/22 09:51:50;;;;;;;1.27;1.20;;;8.60;97.30;;;;;;4991356;28;20786;-76
2024/01/22 09:54:19;;;;;;;1.00;0.90;;;8.50;97.30;;;;;;4992535;28;20420;-72
2024/01/22 09:56:51;;;;;;;0.90;0.80;;;8.30;97.30;;;;;;4991225;28;20443;-75
2024/01/22 09:59:19;;;;;;;0.93;0.87;;;8.20;97.30;;;;;;4991534;28;20437;-70
2024/01/22 10:01:48;;;;;;;1.00;0.90;;;8.10;97.30;;;;;;4990943;28;20574;-71
2024/01/22 10:04:14;;;;;;;1.27;1.17;;;8.10;97.30;;;;;;4992898;28;20435;-76
2024/01/22 10:06:40;;;;;;;1.00;0.90;;;8.10;97.30;;;;;;4992815;28;20476;-70
2024/01/22 10:09:06;;;;;;;0.97;0.90;;;8.10;97.30;;;;;;4993978;28;20982;-72
2024/01/22 10:11:31;;;;;;;1.10;1.00;;;8.00;97.30;;;;;;4993272;28;20476;-75
2024/01/22 10:13:57;;;;;;;1.17;1.03;;;8.00;97.30;;;;;;4994329;28;20551;-71
2024/01/22 10:16:27;;;;;;;0.90;0.80;;;8.00;97.30;;;;;;4995122;28;20208;-77
2024/01/22 10:19:00;;;;;;;1.20;1.10;;;8.10;97.30;;;;;;4983471;28;20421;-73
2024/01/22 10:21:26;;;;;;;1.00;0.90;;;8.20;97.30;;;;;;4990184;28;20477;-73
2024/01/22 10:24:02;;;;;;;1.33;1.10;;;8.20;97.30;;;;;;4990692;28;20979;-75
2024/01/22 10:26:30;;;;;;;0.90;0.80;;;8.30;97.30;;;;;;4993751;28;20504;-77
2024/01/22 10:29:16;;;;;;;1.00;0.90;;;8.30;97.30;;;;;;4992125;28;20485;-74
2024/01/22 10:32:00;;;;;;;1.70;1.60;;;8.40;97.30;;;;;;4999162;28;20973;-74
2024/01/22 10:34:28;;;;;;;1.53;1.50;;;8.50;97.30;;;;;;4990533;28;20465;-74
2024/01/22 10:37:08;;;;;;;1.00;0.90;;;8.50;97.30;;;;;;4991260;28;20785;-72
2024/01/22 10:39:38;;;;;;;1.17;1.10;;;8.60;97.30;;;;;;4995952;28;20919;-73
2024/01/22 10:42:14;;;;;;;1.10;1.00;;;8.60;97.30;;;;;;4990804;28;20524;-74
2024/01/22 10:44:45;;;;;;;1.73;1.63;;;8.60;97.30;;;;;;4994672;28;20482;-74
2024/01/22 10:47:14;;;;;;;1.00;0.90;;;8.70;97.30;;;;;;4990705;28;20516;-75
2024/01/22 10:49:43;;;;;;;0.90;0.80;;;8.70;97.30;;;;;;4993685;28;20440;-71
2024/01/22 10:52:09;;;;;;;2.73;1.33;;;8.70;97.30;;;;;;4990263;28;20507;-73
2024/01/22 10:54:36;;;;;;;1.23;1.13;;;8.80;97.30;;;;;;4993861;28;20431;-72
2024/01/22 10:57:24;;;;;;;1.00;0.90;;;8.80;97.30;;;;;;4990332;28;20425;-73
2024/01/22 10:59:54;;;;;;;1.43;1.33;;;8.80;97.30;;;;;;4993159;28;20427;-69
2024/01/22 11:02:25;;;;;;;0.93;0.83;;;8.90;97.30;;;;;;4990103;28;20507;-70
2024/01/22 11:04:56;;;;;;;1.00;0.90;;;8.90;97.30;;;;;;4992281;28;20472;-71
2024/01/22 11:07:28;;;;;;;1.00;0.90;;;9.00;97.30;;;;;;4990888;28;20440;-72
2024/01/22 11:09:57;;;;;;;1.43;1.00;;;9.10;97.30;;;;;;4985972;28;20457;-72
2024/01/22 11:12:24;;;;;;;0.90;0.80;;;9.10;97.30;;;;;;4989866;28;20715;-78
2024/01/22 11:14:50;;;;;;;3.87;3.03;;;9.20;97.30;;;;;;4975925;28;20528;-71
2024/01/22 11:17:18;;;;;;;16.37;1.10;;;9.30;97.30;;;;;;4991078;28;20508;-72
2024/01/22 11:19:44;;;;;;;0.90;0.80;;;9.30;97.30;;;;;;4991360;28;20185;-73
2024/01/22 11:22:21;;;;;;;5.17;1.57;;;9.30;97.30;;;;;;4989381;28;20987;-72
2024/01/22 11:25:06;;;;;;;0.90;0.80;;;9.30;97.30;;;;;;4991322;28;20828;-72
2024/01/22 11:27:38;;;;;;;0.90;0.80;;;9.20;97.30;;;;;;4990756;28;20425;-71
2024/01/22 11:33:23;;;;;;;7.70;1.30;;;9.20;97.30;;;;;;5022077;28;20475;-90
2024/01/22 11:35:49;;;;;;;1.33;1.23;;;9.30;97.30;;;;;;5028383;28;20477;-89
2024/01/22 11:38:14;;;;;;;1.57;1.40;;;9.30;97.30;;;;;;5030249;28;20451;-90
2024/01/22 11:40:49;;;;;;;2.40;1.10;;;9.30;97.30;;;;;;5027943;28;20184;-89
2024/01/22 11:43:17;;;;;;;1.60;1.50;;;9.40;97.30;;;;;;5026316;28;20176;-90
2024/01/22 11:45:44;;;;;;;0.90;0.80;;;9.50;97.30;;;;;;5029065;28;20506;-90
2024/01/22 11:48:23;;;;;;;1.33;1.23;;;9.50;97.30;;;;;;5026575;28;20424;-90
2024/01/22 11:50:59;;;;;;;0.90;0.80;;;9.50;97.30;;;;;;5028175;28;20423;-91
2024/01/22 11:53:26;;;;;;;1.30;1.20;;;9.50;97.30;;;;;;5028717;28;20764;-89
2024/01/22 11:56:01;;;;;;;2.70;1.77;;;9.60;97.30;;;;;;5029326;28;20443;-90
2024/01/22 11:58:31;;;;;;;0.90;0.80;;;9.60;97.30;;;;;;5028419;28;20441;-90
2024/01/22 12:00:58;;;;;;;0.80;0.80;;;9.60;97.30;;;;;;5016669;28;20935;-89
2024/01/22 12:03:31;;;;;;;1.30;1.20;;;9.60;97.30;;;;;;5030388;28;20473;-90
2024/01/22 12:06:01;;;;;;;0.90;0.80;;;9.60;97.30;;;;;;5027064;28;20992;-89
2024/01/22 12:08:27;;;;;;;9.63;1.07;;;9.60;97.30;;;;;;5030193;28;20415;-89
2024/01/22 12:10:56;;;;;;;1.67;1.63;;;9.70;97.30;;;;;;5025446;28;20432;-90
2024/01/22 12:13:22;;;;;;;0.87;0.77;;;9.70;97.30;;;;;;5028320;28;20510;-90
2024/01/22 12:15:54;;;;;;;1.10;1.00;;;9.70;97.30;;;;;;5028469;28;20510;-90
2024/01/22 12:18:25;;;;;;;0.70;0.70;;;9.70;97.30;;;;;;5027119;28;20423;-90
2024/01/22 12:20:52;;;;;;;1.23;1.13;;;9.80;97.30;;;;;;5030207;28;20441;-89
2024/01/22 12:23:31;;;;;;;2.90;2.47;;;9.80;97.30;;;;;;5029772;28;20514;-89
2024/01/22 12:25:57;;;;;;;1.63;1.10;;;9.90;97.30;;;;;;5024687;28;20467;-90
2024/01/22 12:28:23;;;;;;;0.90;0.80;;;9.90;97.30;;;;;;5030802;28;20462;-90
2024/01/22 12:31:02;;;;;;;1.20;1.10;;;9.90;97.30;;;;;;5027830;28;20462;-90
2024/01/22 12:33:33;;;;;;;1.00;0.90;;;9.90;97.30;;;;;;5027802;28;20442;-89
2024/01/22 12:36:04;;;;;;;0.90;0.80;;;9.90;97.30;;;;;;5026471;28;20427;-89
2024/01/22 12:38:34;;;;;;;1.83;1.63;;;9.90;97.30;;;;;;5030219;28;20463;-89
2024/01/22 12:41:04;;;;;;;1.00;0.90;;;9.90;97.30;;;;;;5022785;28;21062;-89
2024/01/22 12:43:30;;;;;;;1.00;0.90;;;9.90;97.30;;;;;;5029383;28;20519;-90
2024/01/22 12:46:10;;;;;;;1.00;0.90;;;9.90;97.30;;;;;;5021897;28;20546;-91
2024/01/22 12:48:39;;;;;;;1.10;1.00;;;9.90;97.30;;;;;;5028606;28;20501;-90
2024/01/22 12:51:08;;;;;;;1.00;0.90;;;10.00;97.30;;;;;;5027129;28;20447;-90
2024/01/22 12:53:34;;;;;;;0.90;0.80;;;10.00;97.30;;;;;;5027567;28;20423;-91
2024/01/22 12:56:05;;;;;;;1.27;1.17;;;10.00;97.30;;;;;;5022050;28;20427;-89
2024/01/22 12:58:30;;;;;;;2.30;1.37;;;9.90;97.30;;;;;;5024440;28;20184;-89
2024/01/22 13:00:58;;;;;;;0.90;0.80;;;9.90;97.30;;;;;;5025634;28;20455;-89
2024/01/22 13:03:24;;;;;;;4.20;1.17;;;9.80;97.30;;;;;;5027252;28;20259;-90
2024/01/22 13:05:49;;;;;;;1.03;0.93;;;9.80;97.30;;;;;;5029882;28;20526;-90
2024/01/22 13:08:15;;;;;;;0.90;0.80;;;9.70;97.30;;;;;;5027787;28;20664;-88
2024/01/22 13:10:40;;;;;;;0.90;0.80;;;9.70;97.30;;;;;;5026822;28;20180;-89
2024/01/22 13:13:06;;;;;;;8.80;1.27;;;9.70;97.30;;;;;;5031699;28;20175;-90
2024/01/22 13:15:31;;;;;;;1.00;0.90;;;9.70;97.30;;;;;;5027829;28;20651;-90
2024/01/22 13:17:58;;;;;;;1.27;1.17;;;9.70;97.30;;;;;;5025292;28;20212;-89
2024/01/22 13:20:24;;;;;;;1.00;0.90;;;9.70;97.30;;;;;;5026177;28;20696;-90
2024/01/22 13:22:49;;;;;;;1.30;1.20;;;9.70;97.30;;;;;;5025836;28;20538;-89
2024/01/22 13:25:19;;;;;;;0.90;0.80;;;9.70;97.30;;;;;;5024255;28;20200;-89
2024/01/22 13:27:45;;;;;;;1.10;1.00;;;9.60;97.30;;;;;;5020471;28;20173;-89
2024/01/22 13:30:11;;;;;;;1.93;1.83;;;9.60;97.30;;;;;;5028611;28;20804;-89
2024/01/22 13:32:37;;;;;;;1.20;1.10;;;9.60;97.30;;;;;;5022458;28;20224;-90
2024/01/22 13:35:04;;;;;;;1.00;0.90;;;9.60;97.30;;;;;;5026653;28;20419;-89
2024/01/22 13:37:30;;;;;;;26.47;1.80;;;9.60;97.30;;;;;;5025964;28;20430;-89
2024/01/22 13:39:56;;;;;;;1.73;1.33;;;9.60;97.30;;;;;;5025706;28;20922;-89
2024/01/22 13:42:21;;;;;;;1.00;0.90;;;9.60;97.30;;;;;;5023727;28;20193;-89
2024/01/22 13:44:53;;;;;;;1.30;1.20;;;9.60;97.30;;;;;;5019796;28;20231;-89
2024/01/22 13:47:21;;;;;;;1.00;0.90;;;9.60;97.30;;;;;;5023986;28;20176;-90
2024/01/22 13:49:47;;;;;;;1.67;1.57;;;9.60;97.30;;;;;;5026141;28;20423;-89
2024/01/22 13:52:12;;;;;;;1.00;0.90;;;9.50;97.30;;;;;;5024794;28;20810;-89
2024/01/22 13:54:39;;;;;;;1.20;1.10;;;9.50;97.30;;;;;;5028330;28;20173;-90
2024/01/22 13:57:04;;;;;;;1.20;1.10;;;9.40;97.30;;;;;;5029255;28;20415;-90
2024/01/22 13:59:30;;;;;;;4.50;1.20;;;9.30;97.30;;;;;;5028377;28;20944;-89
2024/01/22 14:01:57;;;;;;;1.00;0.90;;;9.30;97.30;;;;;;5026602;28;20675;-89
2024/01/22 14:04:22;;;;;;;1.20;1.10;;;9.20;97.30;;;;;;5027483;28;20184;-91
2024/01/22 14:06:48;;;;;;;1.10;1.00;;;9.20;97.30;;;;;;5022878;28;20845;-90
2024/01/22 14:09:14;;;;;;;1.73;1.00;;;9.20;97.30;;;;;;5028726;28;20202;-90
2024/01/22 14:11:40;;;;;;;1.33;1.10;;;9.20;97.30;;;;;;5028227;28;20295;-90
2024/01/22 14:14:09;;;;;;;2.10;1.13;;;9.20;97.30;;;;;;5021132;28;20613;-89
2024/01/22 14:16:34;;;;;;;1.33;1.27;;;9.20;97.30;;;;;;5028117;28;20459;-89
2024/01/22 14:19:00;;;;;;;1.47;1.37;;;9.20;97.30;;;;;;5024785;28;20521;-89
2024/01/22 14:21:25;;;;;;;1.03;0.93;;;9.20;97.30;;;;;;5019827;28;20745;-91
2024/01/22 14:23:51;;;;;;;1.13;1.03;;;9.20;97.30;;;;;;5016756;28;20185;-89
2024/01/22 14:26:16;;;;;;;1.10;1.00;;;9.20;97.30;;;;;;5016850;28;20200;-89
2024/01/22 14:28:42;;;;;;;0.90;0.80;;;9.20;97.30;;;;;;5018694;28;20234;-90
2024/01/22 14:31:08;;;;;;;1.00;0.90;;;9.20;97.30;;;;;;5021325;28;20195;-91
2024/01/22 14:33:33;;;;;;;1.00;0.90;;;9.20;97.30;;;;;;5021614;28;20204;-90
2024/01/22 14:35:59;;;;;;;0.90;0.80;;;9.20;97.30;;;;;;5021072;28;20551;-87
2024/01/22 14:38:25;;;;;;;1.00;0.90;;;9.20;97.30;;;;;;5023932;28;20182;-88
2024/01/22 14:40:51;;;;;;;1.00;0.90;;;9.20;97.30;;;;;;5021401;28;20275;-89
2024/01/22 14:43:17;;;;;;;1.97;1.60;;;9.20;97.30;;;;;;5029684;28;20500;-89
2024/01/22 14:45:42;;;;;;;1.00;0.90;;;9.30;97.30;;;;;;5024331;28;20460;-89
2024/01/22 14:48:10;;;;;;;0.90;0.80;;;9.30;97.30;;;;;;5029229;28;20188;-89
2024/01/22 14:50:36;;;;;;;1.20;1.20;;;9.20;97.30;;;;;;5028120;28;20225;-89
2024/01/22 14:53:03;;;;;;;3.00;1.47;;;9.20;97.30;;;;;;5031956;28;20427;-89
2024/01/22 14:55:28;;;;;;;1.00;0.90;;;9.20;97.30;;;;;;5028805;28;20439;-89
2024/01/22 14:57:54;;;;;;;0.90;0.80;;;9.20;97.30;;;;;;5013996;28;20446;-89
2024/01/22 15:00:20;;;;;;;0.90;0.80;;;9.20;97.30;;;;;;5023398;28;20176;-90
2024/01/22 15:02:45;;;;;;;1.23;1.10;;;9.20;97.30;;;;;;5027211;28;20277;-92
2024/01/22 15:05:12;;;;;;;0.90;0.80;;;9.20;97.30;;;;;;5027912;28;20248;-89
2024/01/22 15:07:37;;;;;;;1.00;0.90;;;9.20;97.30;;;;;;5024286;28;20672;-88
2024/01/22 15:10:03;;;;;;;0.90;0.80;;;9.20;97.30;;;;;;5027409;28;20610;-90
2024/01/22 15:12:29;;;;;;;1.60;1.50;;;9.10;97.30;;;;;;5029683;28;20258;-90
2024/01/22 15:14:56;;;;;;;0.90;0.80;;;9.10;97.30;;;;;;5019920;28;20625;-90
2024/01/22 15:17:22;;;;;;;0.97;0.87;;;9.10;97.30;;;;;;5029035;28;20191;-89
2024/01/22 15:19:47;;;;;;;1.00;0.90;;;9.00;97.30;;;;;;5028492;28;20435;-90
2024/01/22 15:22:13;;;;;;;1.00;0.90;;;9.00;97.30;;;;;;5025113;28;20208;-91
2024/01/22 15:24:38;;;;;;;1.00;0.90;;;9.00;97.30;;;;;;5020287;28;20231;-90
2024/01/22 15:27:04;;;;;;;1.03;0.97;;;9.00;97.30;;;;;;5027450;28;20565;-90
2024/01/22 15:29:29;;;;;;;0.87;0.80;;;9.00;97.30;;;;;;5022269;28;20322;-90
2024/01/22 15:31:55;;;;;;;0.90;0.80;;;9.00;97.30;;;;;;5029994;28;20216;-88
2024/01/22 15:34:21;;;;;;;1.07;0.97;;;9.00;97.30;;;;;;5030505;28;20194;-90
2024/01/22 15:36:47;;;;;;;3.07;1.87;;;9.00;97.30;;;;;;5023961;28;20189;-88
2024/01/22 15:39:12;;;;;;;1.00;0.90;;;9.10;97.30;;;;;;5026701;28;20422;-90
2024/01/22 15:41:38;;;;;;;0.90;0.80;;;9.10;97.30;;;;;;5023991;28;20806;-88
2024/01/22 15:44:04;;;;;;;0.90;0.80;;;9.10;97.30;;;;;;5024205;28;20180;-89
2024/01/22 15:46:30;;;;;;;0.90;0.80;;;9.10;97.30;;;;;;5023615;28;20650;-88
2024/01/22 15:48:56;;;;;;;0.90;0.80;;;9.20;97.30;;;;;;5030477;28;20259;-89
2024/01/22 15:51:21;;;;;;;0.97;0.87;;;9.20;97.30;;;;;;5026340;28;20188;-90
2024/01/22 15:53:47;;;;;;;1.30;1.07;;;9.20;97.30;;;;;;5026925;28;20438;-89
2024/01/22 15:56:12;;;;;;;1.83;1.73;;;9.20;97.30;;;;;;5017051;28;20300;-89
2024/01/22 15:58:39;;;;;;;1.00;0.90;;;9.30;97.30;;;;;;5026946;28;20235;-90
2024/01/22 16:01:05;;;;;;;1.27;1.13;;;9.30;97.30;;;;;;5012304;28;20664;-89
2024/01/22 16:03:30;;;;;;;1.20;1.10;;;9.30;97.30;;;;;;5022866;28;20436;-89
2024/01/22 16:05:57;;;;;;;1.00;0.90;;;9.30;97.30;;;;;;5026936;28;20236;-89
2024/01/22 16:08:23;;;;;;;1.87;0.93;;;9.40;97.30;;;;;;5028575;28;20172;-89
2024/01/22 16:10:49;;;;;;;1.00;0.90;;;9.40;97.30;;;;;;5031018;28;20467;-89
2024/01/22 16:13:15;;;;;;;1.30;1.20;;;9.40;97.30;;;;;;5031002;28;20183;-88
2024/01/22 16:15:41;;;;;;;2.57;2.37;;;9.40;97.30;;;;;;5030709;28;20416;-88
2024/01/22 16:18:08;;;;;;;13.57;4.00;;;9.40;97.30;;;;;;5042679;28;20438;-89
2024/01/22 16:20:33;;;;;;;1.53;1.43;;;9.30;97.30;;;;;;5039837;28;20224;-86
2024/01/22 16:22:59;;;;;;;1.67;1.57;;;9.40;97.30;;;;;;5028544;28;20788;-88
2024/01/22 16:25:24;;;;;;;1.20;1.10;;;9.50;97.30;;;;;;5028328;28;20291;-87
2024/01/22 16:27:53;;;;;;;3.03;1.67;;;9.50;97.30;;;;;;5024939;28;20548;-86
2024/01/22 16:30:19;;;;;;;1.37;0.90;;;9.50;97.30;;;;;;5031248;28;20272;-86
2024/01/22 16:32:45;;;;;;;0.90;0.80;;;9.50;97.30;;;;;;5030604;28;20463;-87
2024/01/22 16:35:10;;;;;;;0.97;0.87;;;9.60;97.30;;;;;;5021263;28;20422;-87
2024/01/22 16:37:36;;;;;;;0.90;0.80;;;9.60;97.30;;;;;;5018841;28;20439;-87
2024/01/22 16:40:03;;;;;;;1.00;0.90;;;9.60;97.30;;;;;;5019283;28;20181;-86
2024/01/22 16:42:29;;;;;;;1.10;1.00;;;9.60;97.30;;;;;;5029483;28;20662;-87
2024/01/22 16:44:54;;;;;;;1.03;0.93;;;9.60;97.30;;;;;;5029383;28;20415;-87
2024/01/22 16:47:20;;;;;;;3.13;1.00;;;9.60;97.30;;;;;;5029645;28;20177;-87
2024/01/22 16:49:45;;;;;;;1.57;1.47;;;9.60;97.30;;;;;;5030066;28;20677;-87
2024/01/22 16:52:11;;;;;;;1.00;0.90;;;9.60;97.30;;;;;;5029971;28;20870;-86
2024/01/22 16:54:36;;;;;;;0.80;0.70;;;9.60;97.30;;;;;;5015480;28;20189;-88
2024/01/22 16:57:02;;;;;;;1.40;1.30;;;9.60;97.30;;;;;;5028060;28;20181;-88
2024/01/22 16:59:28;;;;;;;0.80;0.70;;;9.60;97.30;;;;;;5029661;28;20176;-87
2024/01/22 17:01:56;;;;;;;0.90;0.80;;;9.50;97.30;;;;;;5020981;28;20200;-88
2024/01/22 17:04:26;;;;;;;0.90;0.80;;;9.50;97.30;;;;;;5005492;28;20184;-89
2024/01/22 17:07:07;;;;;;;1.10;1.10;;;9.50;97.30;;;;;;5030382;28;20463;-88
2024/01/22 17:09:33;;;;;;;1.00;0.90;;;9.50;97.30;;;;;;5026108;28;20451;-88
2024/01/22 17:12:01;;;;;;;1.03;0.93;;;9.40;97.30;;;;;;5026584;28;20432;-92
2024/01/22 17:14:26;;;;;;;1.87;1.77;;;9.20;97.30;;;;;;5012248;28;20452;-89
2024/01/22 17:16:52;;;;;;;0.97;0.87;;;9.00;97.30;;;;;;5022583;28;20462;-90
2024/01/22 17:19:17;;;;;;;0.90;0.80;;;8.90;97.30;;;;;;5023535;28;20200;-89
2024/01/22 17:21:43;;;;;;;0.90;0.80;;;8.80;97.30;;;;;;5024098;28;20208;-90
2024/01/22 17:24:08;;;;;;;0.90;0.80;;;8.70;97.30;;;;;;5023650;28;20184;-89
2024/01/22 17:26:34;;;;;;;1.10;1.00;;;8.60;97.30;;;;;;5020839;28;20262;-90
2024/01/22 17:28:59;;;;;;;1.00;0.90;;;8.60;97.30;;;;;;5029523;28;20647;-87
2024/01/22 17:31:25;;;;;;;1.00;0.90;;;8.50;97.30;;;;;;5025612;28;20278;-87
2024/01/22 17:33:50;;;;;;;1.17;1.07;;;8.50;97.30;;;;;;5027207;28;20184;-89
2024/01/22 17:36:16;;;;;;;1.43;1.07;;;8.50;97.30;;;;;;5023206;28;20324;-89
2024/01/22 17:38:41;;;;;;;0.90;0.80;;;8.50;97.30;;;;;;5026325;28;20195;-89
2024/01/22 17:41:07;;;;;;;0.97;0.87;;;8.50;97.30;;;;;;5016631;28;20197;-89
2024/01/22 17:43:33;;;;;;;1.00;0.90;;;8.50;97.30;;;;;;5021954;28;20204;-88
2024/01/22 17:46:00;;;;;;;0.90;0.80;;;8.60;97.30;;;;;;5020706;28;20213;-89
2024/01/22 17:48:25;;;;;;;1.77;1.10;;;8.60;97.30;;;;;;5024010;28;20185;-88
2024/01/22 17:50:51;;;;;;;3.00;0.90;;;8.60;97.30;;;;;;5028136;28;20420;-88
2024/01/22 17:53:16;;;;;;;1.57;1.10;;;8.60;97.30;;;;;;5023404;28;20713;-90
2024/01/22 17:55:42;;;;;;;1.50;1.40;;;8.60;97.30;;;;;;5028116;28;20181;-88
2024/01/22 17:58:07;;;;;;;1.10;0.90;;;8.60;97.30;;;;;;5023646;28;20235;-90
2024/01/22 18:00:33;;;;;;;2.10;1.63;;;8.50;97.30;;;;;;5024755;28;20188;-90
2024/01/22 18:02:58;;;;;;;2.10;1.23;;;8.50;97.30;;;;;;5025892;28;20721;-89